createdAt,value
2017-11-17T00:00:55.413Z,57.6
2017-11-17T00:15:09.296Z,58.4
2017-11-17T00:23:16.758Z,57.8
2017-11-17T00:30:54.561Z,55.6
2017-11-17T00:40:55.381Z,57.1
2017-11-17T00:50:55.139Z,64.9
2017-11-17T01:00:55.051Z,57.8
2017-11-17T01:10:54.820Z,59.8
2017-11-17T01:20:54.709Z,59.8
2017-11-17T01:30:54.457Z,59.0
2017-11-17T01:40:55.234Z,61.7
2017-11-17T01:50:55.212Z,62.2
2017-11-17T02:00:54.980Z,61.2
2017-11-17T02:10:54.738Z,59.4
2017-11-17T02:20:54.558Z,61.1
2017-11-17T02:30:55.595Z,60.8
2017-11-17T02:40:55.313Z,63.2
2017-11-17T02:50:55.497Z,62.5
2017-11-17T03:00:55.230Z,60.4
2017-11-17T03:10:55.142Z,61.9
2017-11-17T03:20:54.929Z,62.5
2017-11-17T03:30:54.689Z,64.7
2017-11-17T03:40:54.483Z,64.1
2017-11-17T03:50:55.420Z,74.1
2017-11-17T04:00:55.579Z,75.9
2017-11-17T04:10:55.299Z,80.3
2017-11-17T04:20:55.298Z,81.3
2017-11-17T04:30:55.054Z,79.0
2017-11-17T04:40:54.964Z,74.8
2017-11-17T04:50:54.970Z,79.2
2017-11-17T05:00:55.015Z,79.2
2017-11-17T05:10:54.746Z,86.0
2017-11-17T05:20:54.812Z,81.8
2017-11-17T05:30:55.237Z,86.3
2017-11-17T05:40:55.195Z,87.6
2017-11-17T05:50:54.947Z,91.8
2017-11-17T06:00:55.108Z,86.2
2017-11-17T06:10:54.976Z,81.7
2017-11-17T06:20:54.838Z,75.9
2017-11-17T06:30:55.070Z,74.5
2017-11-17T06:40:54.803Z,71.3
2017-11-17T06:50:54.542Z,70.1
2017-11-17T07:00:55.477Z,74.4
2017-11-17T07:10:55.219Z,71.8
2017-11-17T07:20:55.057Z,74.7
2017-11-17T07:30:54.867Z,70.2
2017-11-17T07:40:54.584Z,71.3
2017-11-17T07:50:54.539Z,68.7
2017-11-17T08:00:55.510Z,76.9
2017-11-17T08:10:55.632Z,71.6
2017-11-17T08:20:54.810Z,72.9
2017-11-17T08:30:54.585Z,62.5
2017-11-17T08:40:55.375Z,60.6
2017-11-17T08:50:55.201Z,58.7
2017-11-17T09:00:54.971Z,64.9
2017-11-17T09:10:54.919Z,63.4
2017-11-17T09:20:54.912Z,63.1
2017-11-17T09:30:54.690Z,62.3
2017-11-17T09:40:54.448Z,64.5
2017-11-17T09:50:55.465Z,72.8
2017-11-17T10:00:55.467Z,63.6
2017-11-17T10:10:55.257Z,69.0
2017-11-17T10:20:55.367Z,64.2
2017-11-17T10:30:55.139Z,71.2
2017-11-17T10:40:55.060Z,74.9
2017-11-17T10:50:54.812Z,70.7
2017-11-17T11:00:54.830Z,68.9
2017-11-17T11:10:55.161Z,62.7
2017-11-17T11:20:55.037Z,57.6
2017-11-17T11:30:54.782Z,51.6
2017-11-17T11:40:56.027Z,50.2
2017-11-17T11:50:55.241Z,43.8
2017-11-17T12:00:54.997Z,41.1
2017-11-17T12:10:55.104Z,36.5
2017-11-17T12:20:55.040Z,38.5
2017-11-17T12:30:54.981Z,41.1
2017-11-17T12:40:54.978Z,38.6
2017-11-17T12:50:55.035Z,40.2
2017-11-17T13:00:55.098Z,41.1
2017-11-17T13:10:55.419Z,40.9
2017-11-17T13:20:55.470Z,43.7
2017-11-17T13:30:55.214Z,45.1
2017-11-17T13:40:55.131Z,46.2
2017-11-17T13:50:54.911Z,47.4
2017-11-17T14:00:54.858Z,45.9
2017-11-17T14:10:54.600Z,44.7
2017-11-17T14:20:54.652Z,45.7
2017-11-17T14:30:54.596Z,47.8
2017-11-17T14:40:55.346Z,50.4
2017-11-17T14:50:55.077Z,57.1
2017-11-17T15:00:54.830Z,49.4
2017-11-17T15:10:54.568Z,50.7
2017-11-17T15:20:54.503Z,51.6
2017-11-17T15:30:55.521Z,51.9
2017-11-17T15:40:55.278Z,51.2
2017-11-17T15:50:55.219Z,51.8
2017-11-17T16:00:55.008Z,53.5
2017-11-17T16:10:55.110Z,58.5
2017-11-17T16:20:55.453Z,52.4
2017-11-17T16:30:55.385Z,54.6
2017-11-17T16:40:55.320Z,56.8
2017-11-17T16:50:55.293Z,58.1
2017-11-17T17:00:55.499Z,57.7
2017-11-17T17:10:55.425Z,58.6
2017-11-17T17:20:55.475Z,57.6
2017-11-17T17:30:55.445Z,56.9
2017-11-17T17:40:55.480Z,60.2
2017-11-17T17:50:55.464Z,60.5
2017-11-17T18:00:55.189Z,63.4
2017-11-17T18:10:55.071Z,62.2
2017-11-17T18:20:55.090Z,64.2
2017-11-17T18:30:55.082Z,66.2
2017-11-17T18:40:54.848Z,65.5
2017-11-17T18:50:54.649Z,61.3
2017-11-17T19:00:54.391Z,67.1
2017-11-17T19:10:55.276Z,60.4
2017-11-17T19:20:55.095Z,59.4
2017-11-17T19:30:55.150Z,62.4
2017-11-17T19:40:54.863Z,66.1
2017-11-17T19:50:54.871Z,65.4
2017-11-17T20:00:54.617Z,74.3
2017-11-17T20:10:55.373Z,62.5
2017-11-17T20:20:55.215Z,65.9
2017-11-17T20:30:55.275Z,67.2
2017-11-17T20:40:54.938Z,67.9
2017-11-17T20:50:54.870Z,66.8
2017-11-17T21:00:54.606Z,72.4
2017-11-17T21:10:56.364Z,72.9
2017-11-17T21:20:55.428Z,74.1
2017-11-17T21:30:55.224Z,75.0
2017-11-17T21:40:54.992Z,72.5
2017-11-17T21:50:54.663Z,77.2
2017-11-17T22:00:54.489Z,76.1
2017-11-17T22:10:55.299Z,75.2
2017-11-17T22:20:55.184Z,77.9
2017-11-17T22:30:55.162Z,75.0
2017-11-17T22:40:54.905Z,72.0
2017-11-17T22:50:54.876Z,70.1
2017-11-17T23:00:54.663Z,72.9
2017-11-17T23:10:54.430Z,69.6
2017-11-17T23:20:55.551Z,67.3
2017-11-17T23:30:55.648Z,68.0
2017-11-17T23:40:55.383Z,69.2
2017-11-17T23:50:55.281Z,64.4
